Karbers Ridge, Illinois
Current Conditions -  °F | °C
As of 10:15 AM on Wednesday 28 Jan 2015 (Local Time) from KHSB Reporting Station
Clear Clear  
Wind Chill: 27°   Ceiling: Unl
Heat Index: 35°   Visibility: 10mi
Dew Point: 30°   Wind: 10mph
Humidity: 81%   Direction: 130°SE
Pressure: 30.32"   Gusts: NA
Location:  37.58°N, 88.33°W
Report Text: KHSB 281615Z AUTO 13009KT 10SM CLR 02/M01 A3032 RMK AO2 T00171012
Loading
Personal Weather Stations






























Interactive Weather Map New forecast layout! Learn more

10-Day Weather Forecast

Advertisements
Track Severe Weather on mobile